Time;durP1;ratioP1;P1;durP2;ratioP2;P2;SDS_P1;SDS_P2;PMS_P1;PMS_P2;Temp;Humidity;BMP_temperature;BMP_pressure;BME280_temperature;BME280_humidity;BME280_pressure;Samples;Min_cycle;Max_cycle;Signal;HPM_P1;HPM_P2
2022/12/22 03:26:50;;;;;;;41.35;37.83;;;;;;;;;;5051973;28;20175;-63
2022/12/22 03:29:16;;;;;;;42.60;38.95;;;;;;;;;;5051896;28;20115;-58
2022/12/22 03:31:42;;;;;;;42.03;38.42;;;;;;;;;;5051632;28;20025;-64
2022/12/22 03:34:08;;;;;;;41.60;37.88;;;;;;;;;;5051050;28;20461;-63
2022/12/22 03:36:34;;;;;;;41.53;37.95;;;;;;;;;;5033849;28;20032;-63
2022/12/22 03:39:00;;;;;;;45.13;39.38;;;;;;;;;;5051741;28;20116;-63
2022/12/22 03:46:55;;;;;;;42.95;39.10;;;;;;;;;;5051977;28;20064;-61
2022/12/22 03:49:21;;;;;;;40.88;37.42;;;;;;;;;;5051616;28;20021;-62
2022/12/22 03:51:51;;;;;;;42.30;38.50;;;;;;;;;;5051529;28;20032;-64
2022/12/22 03:54:21;;;;;;;41.45;37.88;;;;;;;;;;5050452;28;20029;-63
2022/12/22 03:56:49;;;;;;;44.17;40.22;;;;;;;;;;5033709;28;20029;-63
2022/12/22 03:59:15;;;;;;;42.03;38.47;;;;;;;;;;5033611;28;20021;-64
2022/12/22 04:01:42;;;;;;;43.17;39.38;;;;;;;;;;5033215;28;20137;-60
2022/12/22 04:04:08;;;;;;;43.08;39.42;;;;;;;;;;5032884;28;20052;-63
2022/12/22 04:06:34;;;;;;;44.13;40.22;;;;;;;;;;5051549;28;20021;-61
2022/12/22 04:09:00;;;;;;;43.40;39.70;;;;;;;;;;5051497;28;20025;-61
2022/12/22 04:14:11;;;;;;;48.80;44.45;;;;;;;;;;5050765;28;20094;-62
2022/12/22 04:16:37;;;;;;;48.20;43.80;;;;;;;;;;5050357;28;20029;-62
2022/12/22 04:19:03;;;;;;;45.65;41.58;;;;;;;;;;5051353;28;20025;-56
2022/12/22 04:21:29;;;;;;;47.83;43.72;;;;;;;;;;5051448;28;20469;-61
2022/12/22 04:23:55;;;;;;;47.05;42.92;;;;;;;;;;5050557;28;20032;-59
2022/12/22 04:26:22;;;;;;;54.78;49.45;;;;;;;;;;5051393;28;20025;-59
2022/12/22 04:28:49;;;;;;;47.10;42.67;;;;;;;;;;5051421;28;20493;-62
2022/12/22 04:31:15;;;;;;;49.15;44.65;;;;;;;;;;5033350;28;20033;-63
2022/12/22 04:33:41;;;;;;;44.55;40.20;;;;;;;;;;5032541;28;20477;-61
2022/12/22 04:36:07;;;;;;;42.60;38.58;;;;;;;;;;5051313;28;20036;-62
2022/12/22 04:38:33;;;;;;;43.35;39.58;;;;;;;;;;5033566;28;20422;-62
2022/12/22 04:40:59;;;;;;;43.60;39.70;;;;;;;;;;5051090;28;20025;-60
2022/12/22 04:43:25;;;;;;;42.28;38.67;;;;;;;;;;5050407;28;20516;-60
2022/12/22 04:45:52;;;;;;;42.88;39.03;;;;;;;;;;5051694;28;20013;-61
2022/12/22 04:48:18;;;;;;;41.80;38.15;;;;;;;;;;5051704;28;20099;-59
2022/12/22 04:50:44;;;;;;;42.88;38.80;;;;;;;;;;5051577;28;20396;-57
2022/12/22 04:53:10;;;;;;;42.90;39.03;;;;;;;;;;5050535;28;20100;-61
2022/12/22 04:55:36;;;;;;;42.75;39.03;;;;;;;;;;5050850;28;20033;-58
2022/12/22 04:58:02;;;;;;;43.38;39.47;;;;;;;;;;5050793;28;20041;-60
2022/12/22 05:00:28;;;;;;;42.33;38.63;;;;;;;;;;5050584;28;20465;-62
2022/12/22 05:02:54;;;;;;;44.70;40.53;;;;;;;;;;5050853;28;20035;-66
2022/12/22 05:05:20;;;;;;;43.45;39.42;;;;;;;;;;5051601;28;20029;-60
2022/12/22 05:07:46;;;;;;;41.40;37.67;;;;;;;;;;5054494;28;20394;-62
2022/12/22 05:10:12;;;;;;;41.15;37.05;;;;;;;;;;5036522;28;20021;-62
2022/12/22 05:12:53;;;;;;;41.20;37.25;;;;;;;;;;5054594;28;20052;-62
2022/12/22 05:15:19;;;;;;;41.85;37.97;;;;;;;;;;5053808;28;20057;-59
2022/12/22 05:17:45;;;;;;;42.33;38.42;;;;;;;;;;5036592;28;20124;-62
2022/12/22 05:20:11;;;;;;;42.58;38.97;;;;;;;;;;5054246;28;20017;-61
2022/12/22 05:22:37;;;;;;;41.03;37.33;;;;;;;;;;5036286;28;20029;-61
2022/12/22 05:25:03;;;;;;;42.35;38.47;;;;;;;;;;5053617;28;20021;-62
2022/12/22 05:27:29;;;;;;;43.03;38.53;;;;;;;;;;5054271;28;20036;-61
2022/12/22 05:29:55;;;;;;;41.15;37.60;;;;;;;;;;5054231;28;20017;-60
2022/12/22 05:32:21;;;;;;;39.53;35.92;;;;;;;;;;5036256;28;20016;-61
2022/12/22 05:34:47;;;;;;;41.30;37.40;;;;;;;;;;5035847;28;20392;-62
2022/12/22 05:37:13;;;;;;;42.97;38.97;;;;;;;;;;5053951;28;20588;-62
2022/12/22 05:39:39;;;;;;;49.13;40.92;;;;;;;;;;5054289;28;20057;-64
2022/12/22 05:42:05;;;;;;;43.22;38.75;;;;;;;;;;5053990;28;20029;-66
2022/12/22 05:44:31;;;;;;;41.28;37.75;;;;;;;;;;5053099;28;20045;-62
2022/12/22 05:46:57;;;;;;;41.55;37.90;;;;;;;;;;5053359;28;20021;-63
2022/12/22 05:49:23;;;;;;;41.58;38.00;;;;;;;;;;5053384;28;20096;-61
2022/12/22 05:51:52;;;;;;;41.58;37.67;;;;;;;;;;5035287;28;20483;-63
2022/12/22 05:54:18;;;;;;;40.75;37.13;;;;;;;;;;5035050;28;20079;-61
2022/12/22 05:56:44;;;;;;;42.08;38.15;;;;;;;;;;5053493;28;20505;-60
2022/12/22 05:59:11;;;;;;;41.00;37.28;;;;;;;;;;5035464;28;20037;-63
2022/12/22 06:01:37;;;;;;;42.28;38.53;;;;;;;;;;5049344;23;20034;-62
2022/12/22 06:04:03;;;;;;;39.97;36.58;;;;;;;;;;5031885;28;20505;-62
2022/12/22 06:06:29;;;;;;;40.72;37.10;;;;;;;;;;5032513;28;20096;-60
2022/12/22 06:08:55;;;;;;;41.38;37.78;;;;;;;;;;5032409;28;20033;-62
2022/12/22 06:11:21;;;;;;;41.58;37.75;;;;;;;;;;5032242;28;20079;-62
2022/12/22 06:13:47;;;;;;;40.85;37.17;;;;;;;;;;5013812;28;20032;-62
2022/12/22 06:16:13;;;;;;;42.95;38.92;;;;;;;;;;5031927;28;20033;-63
2022/12/22 06:18:39;;;;;;;41.45;37.53;;;;;;;;;;5014223;28;20500;-63
2022/12/22 06:21:05;;;;;;;41.80;37.95;;;;;;;;;;5014218;28;20029;-62
2022/12/22 06:23:31;;;;;;;43.03;39.13;;;;;;;;;;5031014;28;20013;-61
2022/12/22 06:25:58;;;;;;;41.30;37.60;;;;;;;;;;5031763;28;20135;-62
2022/12/22 06:28:24;;;;;;;42.40;38.67;;;;;;;;;;5013872;28;20160;-62
2022/12/22 06:30:50;;;;;;;42.17;38.38;;;;;;;;;;5031674;28;20033;-63
2022/12/22 06:33:16;;;;;;;41.00;37.38;;;;;;;;;;5030947;28;20033;-63
2022/12/22 06:35:42;;;;;;;44.03;40.00;;;;;;;;;;5031750;28;20034;-58
2022/12/22 06:38:08;;;;;;;43.00;39.08;;;;;;;;;;5031753;28;20377;-62
2022/12/22 06:40:34;;;;;;;43.58;39.58;;;;;;;;;;5031627;28;20020;-63
2022/12/22 06:43:09;;;;;;;44.30;39.97;;;;;;;;;;5031292;28;20036;-63
2022/12/22 06:45:37;;;;;;;42.88;38.88;;;;;;;;;;5031383;28;20033;-64
2022/12/22 06:48:03;;;;;;;42.75;38.85;;;;;;;;;;5013645;28;20033;-62
2022/12/22 06:50:29;;;;;;;43.60;39.50;;;;;;;;;;5031166;28;20029;-61
2022/12/22 06:52:55;;;;;;;42.10;38.03;;;;;;;;;;5031272;28;20101;-59
2022/12/22 06:55:21;;;;;;;42.30;38.50;;;;;;;;;;5030517;28;20092;-62
2022/12/22 06:57:47;;;;;;;43.10;39.05;;;;;;;;;;5031282;28;20025;-62
2022/12/22 07:00:14;;;;;;;42.65;38.75;;;;;;;;;;5031535;28;20028;-62
2022/12/22 07:02:40;;;;;;;42.25;38.45;;;;;;;;;;5030993;28;20397;-63
2022/12/22 07:05:06;;;;;;;43.78;39.58;;;;;;;;;;5030219;28;20040;-61
2022/12/22 07:07:32;;;;;;;43.63;39.50;;;;;;;;;;5013266;28;20025;-62
2022/12/22 07:09:58;;;;;;;43.40;39.30;;;;;;;;;;5030872;28;20031;-62
2022/12/22 07:12:24;;;;;;;43.13;39.13;;;;;;;;;;5031122;28;20096;-63
2022/12/22 07:14:50;;;;;;;43.65;39.40;;;;;;;;;;5012589;28;20031;-58
2022/12/22 07:17:16;;;;;;;42.92;38.78;;;;;;;;;;5030789;28;20064;-62
2022/12/22 07:19:42;;;;;;;42.33;38.42;;;;;;;;;;5030822;28;20079;-61
2022/12/22 07:22:08;;;;;;;45.63;41.05;;;;;;;;;;5013024;28;20120;-62
2022/12/22 07:24:34;;;;;;;45.35;40.88;;;;;;;;;;5030013;28;20032;-61
2022/12/22 07:27:00;;;;;;;44.08;39.47;;;;;;;;;;5030452;28;20022;-61
2022/12/22 07:29:26;;;;;;;45.08;40.33;;;;;;;;;;5030161;28;20485;-60
2022/12/22 07:31:52;;;;;;;47.65;38.95;;;;;;;;;;5030956;28;20033;-62
2022/12/22 07:34:18;;;;;;;48.25;39.60;;;;;;;;;;5030644;28;20112;-61
2022/12/22 07:36:44;;;;;;;50.40;39.00;;;;;;;;;;5031329;28;20029;-62
2022/12/22 07:39:11;;;;;;;48.60;38.95;;;;;;;;;;5031453;28;20113;-63
2022/12/22 07:44:22;;;;;;;49.70;39.42;;;;;;;;;;5029233;28;20056;-64
2022/12/22 07:46:48;;;;;;;52.20;38.40;;;;;;;;;;5030133;28;20032;-68
2022/12/22 07:51:59;;;;;;;48.00;38.63;;;;;;;;;;5032343;28;20076;-66
2022/12/22 07:54:25;;;;;;;42.88;38.47;;;;;;;;;;5030230;28;20026;-62
2022/12/22 07:56:51;;;;;;;44.85;39.80;;;;;;;;;;5030856;28;20034;-64
2022/12/22 07:59:17;;;;;;;49.03;39.40;;;;;;;;;;5031153;28;20026;-62
2022/12/22 08:01:44;;;;;;;44.15;38.03;;;;;;;;;;5029983;28;20454;-64
2022/12/22 08:04:10;;;;;;;46.55;36.63;;;;;;;;;;5030153;28;20160;-62
2022/12/22 08:06:36;;;;;;;48.72;38.50;;;;;;;;;;5030444;28;20029;-63
2022/12/22 08:09:03;;;;;;;43.47;36.58;;;;;;;;;;5031184;28;20508;-63
2022/12/22 08:11:29;;;;;;;44.85;36.15;;;;;;;;;;5030652;28;20045;-66
2022/12/22 08:13:55;;;;;;;44.35;36.90;;;;;;;;;;5030624;28;20444;-66
2022/12/22 08:16:21;;;;;;;50.38;37.13;;;;;;;;;;5031188;28;20030;-66
2022/12/22 08:18:48;;;;;;;48.35;38.05;;;;;;;;;;5031355;28;20030;-66
2022/12/22 08:21:14;;;;;;;43.08;36.80;;;;;;;;;;5030902;28;20028;-65
2022/12/22 08:23:41;;;;;;;42.90;37.55;;;;;;;;;;5030331;28;20448;-64
2022/12/22 08:26:29;;;;;;;44.85;37.08;;;;;;;;;;5013116;28;20537;-65
2022/12/22 08:29:03;;;;;;;52.00;38.90;;;;;;;;;;5031066;28;20014;-64
2022/12/22 08:31:30;;;;;;;49.72;37.55;;;;;;;;;;5030902;28;20030;-65
2022/12/22 08:33:56;;;;;;;44.45;38.28;;;;;;;;;;5030545;28;20585;-65
2022/12/22 08:36:23;;;;;;;43.33;36.90;;;;;;;;;;5011901;28;20095;-65
2022/12/22 08:38:49;;;;;;;39.08;34.83;;;;;;;;;;5029397;28;20099;-67
2022/12/22 08:41:48;;;;;;;45.50;37.42;;;;;;;;;;5033429;28;20029;-66
2022/12/22 08:44:01;;;;;;;42.75;37.15;;;;;;;;;;5034161;28;20576;-66
2022/12/22 08:46:27;;;;;;;41.42;36.97;;;;;;;;;;5010063;28;20059;-65
2022/12/22 08:48:53;;;;;;;40.08;35.83;;;;;;;;;;5034262;28;20017;-64
2022/12/22 08:51:19;;;;;;;43.85;37.45;;;;;;;;;;5034252;28;20527;-64
2022/12/22 08:53:45;;;;;;;45.53;36.83;;;;;;;;;;5033521;28;20049;-64
2022/12/22 08:56:11;;;;;;;43.38;37.60;;;;;;;;;;5034848;28;20115;-65
2022/12/22 08:58:39;;;;;;;43.13;37.25;;;;;;;;;;5033792;28;20026;-64
2022/12/22 09:01:05;;;;;;;45.55;38.42;;;;;;;;;;5033784;28;20132;-63
2022/12/22 09:03:31;;;;;;;45.97;38.95;;;;;;;;;;5033226;28;20386;-63
2022/12/22 09:06:00;;;;;;;42.55;37.10;;;;;;;;;;5034156;28;20025;-63
2022/12/22 09:08:26;;;;;;;48.70;37.85;;;;;;;;;;5034021;28;20025;-63
2022/12/22 09:10:52;;;;;;;41.67;35.92;;;;;;;;;;5016330;28;20021;-67
2022/12/22 09:13:18;;;;;;;45.30;37.70;;;;;;;;;;5033485;28;20108;-64
2022/12/22 09:15:44;;;;;;;45.75;37.50;;;;;;;;;;5034213;28;20071;-64
2022/12/22 09:18:10;;;;;;;43.25;36.55;;;;;;;;;;5033022;28;20532;-66
2022/12/22 09:20:36;;;;;;;41.35;36.67;;;;;;;;;;5034134;28;20025;-64
2022/12/22 09:23:02;;;;;;;43.35;36.33;;;;;;;;;;5033689;28;20025;-63
2022/12/22 09:25:28;;;;;;;43.35;38.75;;;;;;;;;;5033871;28;20466;-65
2022/12/22 09:27:54;;;;;;;46.35;36.72;;;;;;;;;;5033633;28;20017;-65
2022/12/22 09:30:20;;;;;;;43.40;38.72;;;;;;;;;;5033779;28;20493;-64
2022/12/22 09:32:46;;;;;;;40.47;36.22;;;;;;;;;;5034010;28;20099;-63
2022/12/22 09:35:13;;;;;;;44.20;35.83;;;;;;;;;;5033660;28;20040;-65
2022/12/22 09:37:39;;;;;;;44.38;38.50;;;;;;;;;;5033844;28;20022;-64
2022/12/22 09:40:05;;;;;;;40.00;35.20;;;;;;;;;;5034883;28;20492;-66
2022/12/22 09:42:34;;;;;;;39.83;35.33;;;;;;;;;;5033209;28;20061;-64
2022/12/22 09:45:00;;;;;;;41.25;36.83;;;;;;;;;;5033118;28;20022;-64
2022/12/22 09:47:36;;;;;;;42.00;35.88;;;;;;;;;;5035570;28;20022;-64
2022/12/22 09:50:03;;;;;;;42.28;35.22;;;;;;;;;;5033696;28;20394;-63
2022/12/22 09:52:35;;;;;;;38.42;34.38;;;;;;;;;;5032355;28;20037;-64
2022/12/22 09:55:12;;;;;;;38.13;33.92;;;;;;;;;;5015138;28;20131;-64
2022/12/22 09:57:38;;;;;;;36.22;32.30;;;;;;;;;;5033572;28;20091;-64
2022/12/22 10:00:13;;;;;;;35.70;31.88;;;;;;;;;;5033033;28;20033;-64
2022/12/22 10:02:56;;;;;;;39.22;34.80;;;;;;;;;;5033041;28;20034;-64
2022/12/22 10:05:27;;;;;;;44.03;35.53;;;;;;;;;;5032695;28;20053;-65
2022/12/22 10:07:53;;;;;;;37.40;33.25;;;;;;;;;;5033200;28;20028;-64
2022/12/22 10:10:19;;;;;;;36.35;32.55;;;;;;;;;;5032022;28;20075;-65
2022/12/22 10:12:45;;;;;;;37.45;33.45;;;;;;;;;;5033474;28;20144;-65
2022/12/22 10:15:12;;;;;;;35.03;31.25;;;;;;;;;;5032794;28;20071;-63
2022/12/22 10:17:38;;;;;;;36.75;31.65;;;;;;;;;;5034470;28;20022;-64
2022/12/22 10:20:25;;;;;;;37.30;30.75;;;;;;;;;;5033100;28;20076;-65
2022/12/22 10:22:51;;;;;;;38.75;31.77;;;;;;;;;;5032707;28;20032;-64
2022/12/22 10:25:43;;;;;;;37.42;30.40;;;;;;;;;;5032539;28;20033;-65
2022/12/22 10:28:15;;;;;;;34.58;30.90;;;;;;;;;;5009697;28;20036;-65
2022/12/22 10:30:41;;;;;;;39.20;31.73;;;;;;;;;;5032833;28;20024;-65
2022/12/22 10:33:07;;;;;;;33.03;28.73;;;;;;;;;;5031921;28;20044;-64
2022/12/22 10:35:43;;;;;;;32.75;29.15;;;;;;;;;;5031240;28;20116;-63
2022/12/22 10:38:18;;;;;;;35.22;28.95;;;;;;;;;;5032865;28;20464;-65
2022/12/22 10:40:45;;;;;;;31.85;28.55;;;;;;;;;;5032596;28;20478;-65
2022/12/22 10:43:17;;;;;;;33.38;29.58;;;;;;;;;;5018144;28;20045;-65
2022/12/22 10:45:47;;;;;;;31.73;28.17;;;;;;;;;;5032345;28;20045;-67
2022/12/22 10:48:13;;;;;;;32.35;28.83;;;;;;;;;;5012638;28;20104;-65
2022/12/22 10:50:46;;;;;;;34.00;28.67;;;;;;;;;;4994116;28;20033;-62
2022/12/22 10:53:12;;;;;;;39.25;30.70;;;;;;;;;;4994278;28;20018;-64
2022/12/22 10:55:38;;;;;;;37.85;31.27;;;;;;;;;;5012338;28;20042;-64
2022/12/22 10:58:10;;;;;;;33.08;28.38;;;;;;;;;;4994722;28;20025;-66
2022/12/22 11:00:37;;;;;;;31.50;26.02;;;;;;;;;;4994906;28;20064;-66
2022/12/22 11:03:05;;;;;;;30.08;22.55;;;;;;;;;;5011266;28;20084;-65
2022/12/22 11:05:32;;;;;;;25.98;19.38;;;;;;;;;;5012122;28;20041;-64
2022/12/22 11:08:12;;;;;;;24.83;17.55;;;;;;;;;;5012350;28;20041;-65
2022/12/22 11:10:44;;;;;;;25.80;17.02;;;;;;;;;;5012074;28;20366;-64
2022/12/22 11:13:10;;;;;;;24.80;17.48;;;;;;;;;;5011334;28;20077;-66
2022/12/22 11:15:36;;;;;;;23.92;17.25;;;;;;;;;;5012390;28;20022;-67
2022/12/22 11:18:13;;;;;;;26.30;18.65;;;;;;;;;;4994071;28;20135;-65
2022/12/22 11:20:42;;;;;;;27.80;18.25;;;;;;;;;;5012223;28;20045;-65
2022/12/22 11:23:17;;;;;;;27.20;18.33;;;;;;;;;;5011151;28;20104;-65
2022/12/22 11:26:02;;;;;;;25.60;17.13;;;;;;;;;;5012650;28;20091;-66
2022/12/22 11:28:36;;;;;;;26.45;18.33;;;;;;;;;;5012108;28;20040;-65
2022/12/22 11:31:02;;;;;;;27.92;18.85;;;;;;;;;;5011802;28;20025;-65
2022/12/22 11:33:40;;;;;;;29.05;18.25;;;;;;;;;;5009711;28;20405;-65
2022/12/22 11:36:12;;;;;;;27.05;18.45;;;;;;;;;;5011756;28;20061;-66
2022/12/22 11:38:39;;;;;;;26.73;18.00;;;;;;;;;;5011913;28;20063;-64
2022/12/22 11:41:21;;;;;;;26.17;17.55;;;;;;;;;;5011697;28;20401;-64
2022/12/22 11:43:47;;;;;;;23.52;16.25;;;;;;;;;;4993457;28;20026;-66
2022/12/22 11:46:17;;;;;;;26.08;17.95;;;;;;;;;;5015626;28;20020;-66
2022/12/22 11:48:55;;;;;;;28.45;17.95;;;;;;;;;;5031208;28;20021;-65
2022/12/22 11:51:33;;;;;;;28.48;18.60;;;;;;;;;;5013851;28;20378;-63
2022/12/22 11:54:05;;;;;;;25.17;17.63;;;;;;;;;;5031409;28;20029;-66
2022/12/22 11:56:38;;;;;;;27.65;17.17;;;;;;;;;;5031282;28;20037;-64
2022/12/22 11:59:22;;;;;;;27.90;18.98;;;;;;;;;;5031479;28;20033;-65
2022/12/22 12:02:06;;;;;;;26.05;17.20;;;;;;;;;;5041792;22;20064;-68
2022/12/22 12:04:32;;;;;;;24.27;16.17;;;;;;;;;;5009118;28;20042;-65
2022/12/22 12:07:11;;;;;;;27.95;16.75;;;;;;;;;;5009996;28;20065;-68
2022/12/22 12:09:49;;;;;;;25.33;16.05;;;;;;;;;;5010157;28;20061;-68
2022/12/22 12:12:15;;;;;;;25.85;16.70;;;;;;;;;;5011023;28;20034;-65
2022/12/22 12:14:49;;;;;;;26.83;16.08;;;;;;;;;;5012862;28;20038;-67
2022/12/22 12:17:18;;;;;;;25.55;16.55;;;;;;;;;;4997401;28;20041;-67
2022/12/22 12:19:50;;;;;;;25.80;18.05;;;;;;;;;;5014878;28;20026;-67
2022/12/22 12:22:19;;;;;;;27.10;17.08;;;;;;;;;;4997720;28;20042;-67
2022/12/22 12:25:10;;;;;;;24.88;16.75;;;;;;;;;;4996923;28;20025;-66
2022/12/22 12:27:39;;;;;;;22.73;16.38;;;;;;;;;;5005822;28;20045;-65
2022/12/22 12:30:05;;;;;;;25.92;17.15;;;;;;;;;;5015439;28;20018;-67
2022/12/22 12:32:37;;;;;;;25.38;17.23;;;;;;;;;;5015261;28;20029;-68
2022/12/22 12:35:22;;;;;;;23.80;16.67;;;;;;;;;;5014588;28;20038;-68
2022/12/22 12:37:50;;;;;;;22.45;16.73;;;;;;;;;;4997721;28;20112;-66
2022/12/22 12:40:16;;;;;;;23.88;16.20;;;;;;;;;;4997431;28;20049;-68
2022/12/22 12:42:43;;;;;;;22.65;14.90;;;;;;;;;;4997643;28;20030;-67
2022/12/22 12:45:28;;;;;;;21.63;15.38;;;;;;;;;;4995962;28;20022;-65
2022/12/22 12:48:14;;;;;;;22.23;15.82;;;;;;;;;;4662288;28;10000818;-63
2022/12/22 12:50:41;;;;;;;20.85;14.73;;;;;;;;;;4994616;28;20029;-65
2022/12/22 12:53:08;;;;;;;23.30;15.82;;;;;;;;;;5011588;28;20045;-66
2022/12/22 12:55:54;;;;;;;22.38;15.65;;;;;;;;;;4994369;28;20759;-65
2022/12/22 12:58:38;;;;;;;21.35;14.38;;;;;;;;;;4993101;28;20061;-64
2022/12/22 13:01:11;;;;;;;24.27;15.73;;;;;;;;;;4994639;28;20033;-66
2022/12/22 13:03:37;;;;;;;23.13;15.15;;;;;;;;;;4993403;28;20045;-66
2022/12/22 13:06:05;;;;;;;20.65;13.45;;;;;;;;;;4993710;28;20030;-64
2022/12/22 13:08:32;;;;;;;22.85;15.52;;;;;;;;;;5011825;28;20238;-66
2022/12/22 13:10:58;;;;;;;21.85;14.23;;;;;;;;;;5010946;28;20499;-70
2022/12/22 13:13:24;;;;;;;20.98;13.38;;;;;;;;;;5011009;28;20443;-65
2022/12/22 13:16:02;;;;;;;21.23;14.85;;;;;;;;;;4993916;28;20110;-65
2022/12/22 13:18:28;;;;;;;;;;;;;;;;;;5011490;28;20030;-64
2022/12/22 13:20:59;;;;;;;22.10;15.07;;;;;;;;;;5009503;28;19909;-66
2022/12/22 13:23:28;;;;;;;22.20;15.68;;;;;;;;;;5009938;28;20076;-67
2022/12/22 13:25:59;;;;;;;22.60;15.13;;;;;;;;;;5010073;28;20033;-66
2022/12/22 13:28:26;;;;;;;23.17;14.77;;;;;;;;;;5011921;28;20053;-65
2022/12/22 13:30:56;;;;;;;22.20;15.43;;;;;;;;;;5010935;28;20477;-67
2022/12/22 13:33:24;;;;;;;21.25;15.00;;;;;;;;;;5010003;28;20032;-67
2022/12/22 13:35:50;;;;;;;21.60;13.73;;;;;;;;;;5010422;28;20026;-65
2022/12/22 13:38:28;;;;;;;21.52;13.82;;;;;;;;;;5011008;28;20339;-66
2022/12/22 13:40:54;;;;;;;24.55;14.52;;;;;;;;;;5011407;28;20030;-67
2022/12/22 13:43:20;;;;;;;23.00;15.35;;;;;;;;;;4992760;28;20116;-65
2022/12/22 13:45:46;;;;;;;22.90;14.45;;;;;;;;;;5009908;28;20475;-64
2022/12/22 13:48:18;;;;;;;23.48;15.00;;;;;;;;;;5010604;28;20188;-65
2022/12/22 13:50:49;;;;;;;24.00;14.35;;;;;;;;;;4992796;28;20053;-65
2022/12/22 13:53:17;;;;;;;25.75;14.30;;;;;;;;;;5009112;28;20034;-66
2022/12/22 13:55:45;;;;;;;24.33;14.23;;;;;;;;;;5009996;28;20028;-67
2022/12/22 13:58:25;;;;;;;23.13;14.30;;;;;;;;;;5010027;28;20113;-65
2022/12/22 14:01:10;;;;;;;24.10;13.10;;;;;;;;;;5010081;28;20124;-65
2022/12/22 14:03:44;;;;;;;22.90;13.20;;;;;;;;;;5009318;28;20121;-64
2022/12/22 14:06:29;;;;;;;22.25;13.15;;;;;;;;;;4992933;28;20399;-65
2022/12/22 14:09:14;;;;;;;21.00;13.07;;;;;;;;;;5009929;28;20375;-65
2022/12/22 14:11:42;;;;;;;23.27;13.30;;;;;;;;;;5010485;28;20045;-65
2022/12/22 14:14:16;;;;;;;22.15;13.93;;;;;;;;;;5009312;28;20030;-65
2022/12/22 14:16:43;;;;;;;24.60;13.07;;;;;;;;;;5010497;28;20037;-66
2022/12/22 14:19:13;;;;;;;23.33;13.83;;;;;;;;;;5010462;28;20117;-66
2022/12/22 14:21:39;;;;;;;23.90;13.00;;;;;;;;;;5009609;28;20026;-63
2022/12/22 14:24:06;;;;;;;22.02;13.05;;;;;;;;;;5009956;28;20032;-63
2022/12/22 14:26:32;;;;;;;22.23;12.98;;;;;;;;;;5009905;28;20061;-61
2022/12/22 14:28:58;;;;;;;21.67;12.00;;;;;;;;;;4992181;28;20091;-66
2022/12/22 14:31:24;;;;;;;23.55;13.20;;;;;;;;;;5009786;28;20026;-65
2022/12/22 14:33:55;;;;;;;24.80;13.60;;;;;;;;;;5009982;28;20053;-65
2022/12/22 14:36:22;;;;;;;21.38;12.43;;;;;;;;;;4992409;28;20030;-65
2022/12/22 14:38:53;;;;;;;24.48;13.70;;;;;;;;;;5009669;28;20087;-66
2022/12/22 14:41:40;;;;;;;23.25;12.65;;;;;;;;;;5010864;28;20036;-65
2022/12/22 14:44:06;;;;;;;22.38;13.20;;;;;;;;;;4992804;28;20026;-69
2022/12/22 14:46:32;;;;;;;21.60;13.35;;;;;;;;;;5011722;28;20014;-63
2022/12/22 14:48:59;;;;;;;26.92;13.32;;;;;;;;;;5012633;28;20022;-63
2022/12/22 14:51:25;;;;;;;27.92;13.98;;;;;;;;;;4994927;28;20048;-66
2022/12/22 14:53:53;;;;;;;26.20;14.88;;;;;;;;;;4993323;28;20033;-66
2022/12/22 14:56:22;;;;;;;26.25;14.60;;;;;;;;;;5012194;28;20494;-64
2022/12/22 14:58:49;;;;;;;24.17;14.32;;;;;;;;;;4992164;28;20030;-63
2022/12/22 15:01:23;;;;;;;23.90;15.00;;;;;;;;;;5011885;28;20034;-64
2022/12/22 15:04:16;;;;;;;26.67;15.45;;;;;;;;;;5011309;28;20112;-63
2022/12/22 15:06:48;;;;;;;26.90;14.80;;;;;;;;;;5011850;28;20030;-64
2022/12/22 15:09:15;;;;;;;27.90;16.38;;;;;;;;;;5011862;28;20029;-62
2022/12/22 15:11:44;;;;;;;26.08;15.55;;;;;;;;;;4993996;28;20467;-66
2022/12/22 15:14:11;;;;;;;31.15;17.35;;;;;;;;;;4993214;28;20051;-61
2022/12/22 15:16:37;;;;;;;30.52;15.63;;;;;;;;;;5011680;28;20448;-61
2022/12/22 15:19:04;;;;;;;27.67;16.80;;;;;;;;;;4993703;28;20065;-63
2022/12/22 15:21:31;;;;;;;27.42;14.88;;;;;;;;;;4993499;28;20117;-64
2022/12/22 15:23:57;;;;;;;30.67;16.65;;;;;;;;;;4993542;28;20096;-63
2022/12/22 15:26:23;;;;;;;28.63;16.80;;;;;;;;;;5012090;28;20032;-64
2022/12/22 15:28:49;;;;;;;29.38;15.25;;;;;;;;;;4994308;28;20117;-64
2022/12/22 15:31:16;;;;;;;25.60;14.07;;;;;;;;;;4993804;28;20490;-63
2022/12/22 15:33:42;;;;;;;29.92;15.65;;;;;;;;;;5011527;28;20041;-63
2022/12/22 15:36:12;;;;;;;27.15;16.77;;;;;;;;;;5012001;28;20022;-62
2022/12/22 15:38:38;;;;;;;27.40;15.15;;;;;;;;;;5011678;28;20057;-64
2022/12/22 15:41:05;;;;;;;31.13;17.55;;;;;;;;;;4994194;28;20113;-65
2022/12/22 15:43:31;;;;;;;28.85;15.23;;;;;;;;;;5011636;28;20034;-64
2022/12/22 15:45:57;;;;;;;28.65;16.55;;;;;;;;;;4994176;28;20050;-64
2022/12/22 15:48:26;;;;;;;32.00;17.15;;;;;;;;;;5011770;28;20022;-63
2022/12/22 15:50:53;;;;;;;29.25;16.02;;;;;;;;;;5011483;28;20092;-66
2022/12/22 15:53:20;;;;;;;28.10;15.93;;;;;;;;;;4993981;28;20131;-63
2022/12/22 15:55:48;;;;;;;31.02;16.58;;;;;;;;;;4991755;28;20133;-62
2022/12/22 15:58:19;;;;;;;32.08;17.13;;;;;;;;;;4299729;28;10000590;-65
2022/12/22 16:00:45;;;;;;;29.98;17.08;;;;;;;;;;4987091;28;20023;-62
2022/12/22 16:03:12;;;;;;;32.13;16.85;;;;;;;;;;4988209;28;20034;-63
2022/12/22 16:05:38;;;;;;;30.33;17.75;;;;;;;;;;4988688;28;20018;-62
2022/12/22 16:08:09;;;;;;;28.75;17.48;;;;;;;;;;4970666;28;20033;-65
2022/12/22 16:10:35;;;;;;;31.55;19.20;;;;;;;;;;4995347;28;20061;-64
2022/12/22 16:13:02;;;;;;;32.97;19.48;;;;;;;;;;5008144;28;20613;-67
2022/12/22 16:15:32;;;;;;;32.35;19.85;;;;;;;;;;4990297;28;20057;-63
2022/12/22 16:17:59;;;;;;;30.38;18.98;;;;;;;;;;5008750;28;20030;-63
2022/12/22 16:20:26;;;;;;;35.00;18.67;;;;;;;;;;4990461;28;20022;-65
2022/12/22 16:22:53;;;;;;;30.25;19.58;;;;;;;;;;5008074;28;20076;-64
2022/12/22 16:25:23;;;;;;;31.73;19.88;;;;;;;;;;5007368;28;20030;-63
2022/12/22 16:27:49;;;;;;;30.95;19.20;;;;;;;;;;4990361;28;20057;-61
2022/12/22 16:30:22;;;;;;;34.83;19.88;;;;;;;;;;4991503;28;20049;-67
2022/12/22 16:32:48;;;;;;;32.83;20.13;;;;;;;;;;5008193;28;20514;-63
2022/12/22 16:35:21;;;;;;;30.48;20.55;;;;;;;;;;5007743;28;20038;-64
2022/12/22 16:37:48;;;;;;;31.80;18.08;;;;;;;;;;4990982;28;20057;-65
2022/12/22 16:40:14;;;;;;;30.58;20.55;;;;;;;;;;5009652;28;20034;-66
2022/12/22 16:42:43;;;;;;;30.58;19.70;;;;;;;;;;5006959;28;20090;-63
2022/12/22 16:45:09;;;;;;;;;;;;;;;;;;5009047;28;20026;-64
2022/12/22 16:47:35;;;;;;;31.77;20.13;;;;;;;;;;5008750;28;20017;-63
2022/12/22 16:50:02;;;;;;;36.30;21.83;;;;;;;;;;5008666;28;20030;-62
2022/12/22 16:52:34;;;;;;;30.80;19.95;;;;;;;;;;5008707;28;20022;-64
2022/12/22 16:55:00;;;;;;;34.95;21.48;;;;;;;;;;5007419;28;20112;-64
2022/12/22 16:57:26;;;;;;;32.95;21.23;;;;;;;;;;4990437;28;20406;-65
2022/12/22 16:59:52;;;;;;;31.77;20.95;;;;;;;;;;5008784;28;20455;-63
2022/12/22 17:02:23;;;;;;;34.30;21.13;;;;;;;;;;5011547;28;20104;-64
2022/12/22 17:04:50;;;;;;;36.20;22.88;;;;;;;;;;5010707;28;20025;-65
2022/12/22 17:07:16;;;;;;;33.22;21.80;;;;;;;;;;5011104;28;20026;-67
2022/12/22 17:09:53;;;;;;;35.58;21.58;;;;;;;;;;5011738;28;20124;-66
2022/12/22 17:12:24;;;;;;;33.70;23.13;;;;;;;;;;4993461;28;20539;-63
2022/12/22 17:14:51;;;;;;;37.30;22.48;;;;;;;;;;5011140;28;20030;-65
2022/12/22 17:17:18;;;;;;;36.92;23.77;;;;;;;;;;5011348;28;20423;-64
2022/12/22 17:19:44;;;;;;;35.95;21.90;;;;;;;;;;5010455;28;20053;-64
2022/12/22 17:22:26;;;;;;;35.22;21.60;;;;;;;;;;5011021;28;20092;-63
2022/12/22 17:24:53;;;;;;;38.70;21.42;;;;;;;;;;5010520;28;20030;-64
2022/12/22 17:27:25;;;;;;;37.05;22.92;;;;;;;;;;5011658;28;20033;-64
2022/12/22 17:29:51;;;;;;;34.63;21.20;;;;;;;;;;4993838;28;20033;-65
2022/12/22 17:32:19;;;;;;;32.03;21.95;;;;;;;;;;4993692;28;20034;-63
2022/12/22 17:34:45;;;;;;;34.15;22.85;;;;;;;;;;4993156;28;20040;-64
2022/12/22 17:37:22;;;;;;;34.55;22.35;;;;;;;;;;4994352;28;20030;-64
2022/12/22 17:39:55;;;;;;;34.50;22.48;;;;;;;;;;4994082;28;20394;-63
2022/12/22 17:42:22;;;;;;;37.97;23.50;;;;;;;;;;5011853;28;20038;-63
2022/12/22 17:44:49;;;;;;;33.67;22.25;;;;;;;;;;4993155;28;20033;-64
2022/12/22 17:47:16;;;;;;;34.53;25.05;;;;;;;;;;4994542;28;20510;-63
2022/12/22 17:49:42;;;;;;;37.53;23.13;;;;;;;;;;5011933;28;20124;-60
2022/12/22 17:52:18;;;;;;;38.83;23.98;;;;;;;;;;5011181;28;20026;-63
2022/12/22 17:54:45;;;;;;;33.53;22.00;;;;;;;;;;5010555;28;20736;-65
2022/12/22 17:57:21;;;;;;;37.30;23.05;;;;;;;;;;5011255;28;20037;-62
2022/12/22 17:59:47;;;;;;;38.53;23.63;;;;;;;;;;5010482;28;20108;-63
2022/12/22 18:02:20;;;;;;;37.38;25.58;;;;;;;;;;4993075;28;20173;-67
2022/12/22 18:04:46;;;;;;;40.92;26.88;;;;;;;;;;4992605;28;20022;-61
2022/12/22 18:07:14;;;;;;;38.65;26.42;;;;;;;;;;5010817;28;20033;-65